sensor_id;sensor_type;location;lat;lon;timestamp;temperature;humidity
25058;DHT22;13057;50.978;11.034;2023-03-20T00:00:13;11.20;99.90
25058;DHT22;13057;50.978;11.034;2023-03-20T00:02:41;11.20;99.90
25058;DHT22;13057;50.978;11.034;2023-03-20T00:05:15;11.10;99.90
25058;DHT22;13057;50.978;11.034;2023-03-20T00:07:44;11.10;99.90
25058;DHT22;13057;50.978;11.034;2023-03-20T00:10:10;11.10;99.90
25058;DHT22;13057;50.978;11.034;2023-03-20T00:12:36;11.10;99.90
25058;DHT22;13057;50.978;11.034;2023-03-20T00:15:05;11.10;99.90
25058;DHT22;13057;50.978;11.034;2023-03-20T00:17:32;11.10;99.90
25058;DHT22;13057;50.978;11.034;2023-03-20T00:19:58;11.00;99.90
25058;DHT22;13057;50.978;11.034;2023-03-20T00:22:24;11.00;99.90
25058;DHT22;13057;50.978;11.034;2023-03-20T00:24:49;11.00;99.90
25058;DHT22;13057;50.978;11.034;2023-03-20T00:27:16;11.00;99.90
25058;DHT22;13057;50.978;11.034;2023-03-20T00:29:43;11.00;99.90
25058;DHT22;13057;50.978;11.034;2023-03-20T00:32:11;11.00;99.90
25058;DHT22;13057;50.978;11.034;2023-03-20T00:34:37;11.00;99.90
25058;DHT22;13057;50.978;11.034;2023-03-20T00:37:03;10.90;99.90
25058;DHT22;13057;50.978;11.034;2023-03-20T00:39:30;11.00;99.90
25058;DHT22;13057;50.978;11.034;2023-03-20T00:42:00;11.00;99.90
25058;DHT22;13057;50.978;11.034;2023-03-20T00:44:33;11.00;99.90
25058;DHT22;13057;50.978;11.034;2023-03-20T00:47:03;11.00;99.90
25058;DHT22;13057;50.978;11.034;2023-03-20T00:49:32;11.00;99.90
25058;DHT22;13057;50.978;11.034;2023-03-20T00:51:59;11.00;99.90
25058;DHT22;13057;50.978;11.034;2023-03-20T00:54:26;11.00;99.90
25058;DHT22;13057;50.978;11.034;2023-03-20T00:56:58;11.00;99.90
25058;DHT22;13057;50.978;11.034;2023-03-20T00:59:29;11.00;99.90
25058;DHT22;13057;50.978;11.034;2023-03-20T01:01:56;11.00;99.90
25058;DHT22;13057;50.978;11.034;2023-03-20T01:04:23;11.00;99.90
25058;DHT22;13057;50.978;11.034;2023-03-20T01:06:49;10.90;99.90
25058;DHT22;13057;50.978;11.034;2023-03-20T01:09:15;11.00;99.90
25058;DHT22;13057;50.978;11.034;2023-03-20T01:11:43;11.00;99.90
25058;DHT22;13057;50.978;11.034;2023-03-20T01:14:13;10.90;99.90
25058;DHT22;13057;50.978;11.034;2023-03-20T01:16:40;10.90;99.90
25058;DHT22;13057;50.978;11.034;2023-03-20T01:19:11;10.90;99.90
25058;DHT22;13057;50.978;11.034;2023-03-20T01:21:38;10.90;99.90
25058;DHT22;13057;50.978;11.034;2023-03-20T01:24:04;10.90;99.90
25058;DHT22;13057;50.978;11.034;2023-03-20T01:26:36;10.80;99.90
25058;DHT22;13057;50.978;11.034;2023-03-20T01:29:04;10.80;99.90
25058;DHT22;13057;50.978;11.034;2023-03-20T01:31:30;10.70;99.90
25058;DHT22;13057;50.978;11.034;2023-03-20T01:33:56;10.70;99.90
25058;DHT22;13057;50.978;11.034;2023-03-20T01:36:22;10.70;99.90
25058;DHT22;13057;50.978;11.034;2023-03-20T01:38:54;10.60;99.90
25058;DHT22;13057;50.978;11.034;2023-03-20T01:41:23;10.60;99.90
25058;DHT22;13057;50.978;11.034;2023-03-20T01:43:49;10.60;99.90
25058;DHT22;13057;50.978;11.034;2023-03-20T01:46:24;10.60;99.90
25058;DHT22;13057;50.978;11.034;2023-03-20T01:49:04;10.60;99.90
25058;DHT22;13057;50.978;11.034;2023-03-20T01:51:31;10.50;99.90
25058;DHT22;13057;50.978;11.034;2023-03-20T01:54:03;10.50;99.90
25058;DHT22;13057;50.978;11.034;2023-03-20T01:56:36;10.50;99.90
25058;DHT22;13057;50.978;11.034;2023-03-20T01:59:09;10.50;99.90
25058;DHT22;13057;50.978;11.034;2023-03-20T02:01:38;10.50;99.90
25058;DHT22;13057;50.978;11.034;2023-03-20T02:04:05;10.50;99.90
25058;DHT22;13057;50.978;11.034;2023-03-20T02:06:31;10.50;99.90
25058;DHT22;13057;50.978;11.034;2023-03-20T02:08:58;10.50;99.90
25058;DHT22;13057;50.978;11.034;2023-03-20T02:11:24;10.50;99.90
25058;DHT22;13057;50.978;11.034;2023-03-20T02:13:53;10.50;99.90
25058;DHT22;13057;50.978;11.034;2023-03-20T02:16:20;10.50;99.90
25058;DHT22;13057;50.978;11.034;2023-03-20T02:18:48;10.50;99.90
25058;DHT22;13057;50.978;11.034;2023-03-20T02:27:38;10.50;99.90
25058;DHT22;13057;50.978;11.034;2023-03-20T02:30:32;10.50;99.90
25058;DHT22;13057;50.978;11.034;2023-03-20T02:33:25;10.50;99.90
25058;DHT22;13057;50.978;11.034;2023-03-20T02:36:14;10.50;99.90
25058;DHT22;13057;50.978;11.034;2023-03-20T02:38:57;10.50;99.90
25058;DHT22;13057;50.978;11.034;2023-03-20T02:41:40;10.50;99.90
25058;DHT22;13057;50.978;11.034;2023-03-20T02:44:21;10.50;99.90
25058;DHT22;13057;50.978;11.034;2023-03-20T02:47:00;10.50;99.90
25058;DHT22;13057;50.978;11.034;2023-03-20T02:49:46;10.50;99.90
25058;DHT22;13057;50.978;11.034;2023-03-20T02:52:24;10.50;99.90
25058;DHT22;13057;50.978;11.034;2023-03-20T02:55:05;10.40;99.90
25058;DHT22;13057;50.978;11.034;2023-03-20T02:57:45;10.40;99.90
25058;DHT22;13057;50.978;11.034;2023-03-20T03:00:31;10.40;99.90
25058;DHT22;13057;50.978;11.034;2023-03-20T03:03:08;10.40;99.90
25058;DHT22;13057;50.978;11.034;2023-03-20T03:05:44;10.40;99.90
25058;DHT22;13057;50.978;11.034;2023-03-20T03:08:15;10.50;99.90
25058;DHT22;13057;50.978;11.034;2023-03-20T03:10:48;10.50;99.90
25058;DHT22;13057;50.978;11.034;2023-03-20T03:13:19;10.40;99.90
25058;DHT22;13057;50.978;11.034;2023-03-20T03:15:50;10.50;99.90
25058;DHT22;13057;50.978;11.034;2023-03-20T03:18:20;10.40;99.90
25058;DHT22;13057;50.978;11.034;2023-03-20T03:20:51;10.40;99.90
25058;DHT22;13057;50.978;11.034;2023-03-20T03:23:30;10.40;99.90
25058;DHT22;13057;50.978;11.034;2023-03-20T03:25:58;10.50;99.90
25058;DHT22;13057;50.978;11.034;2023-03-20T03:28:35;10.50;99.90
25058;DHT22;13057;50.978;11.034;2023-03-20T03:31:06;10.50;99.90
25058;DHT22;13057;50.978;11.034;2023-03-20T03:33:35;10.50;99.90
25058;DHT22;13057;50.978;11.034;2023-03-20T03:38:58;10.50;99.90
25058;DHT22;13057;50.978;11.034;2023-03-20T03:41:31;10.50;99.90
25058;DHT22;13057;50.978;11.034;2023-03-20T03:44:15;10.50;99.90
25058;DHT22;13057;50.978;11.034;2023-03-20T03:46:52;10.50;99.90
25058;DHT22;13057;50.978;11.034;2023-03-20T03:49:23;10.50;99.90
25058;DHT22;13057;50.978;11.034;2023-03-20T03:51:54;10.50;99.90
25058;DHT22;13057;50.978;11.034;2023-03-20T03:54:24;10.50;99.90
25058;DHT22;13057;50.978;11.034;2023-03-20T03:56:53;10.50;99.90
25058;DHT22;13057;50.978;11.034;2023-03-20T03:59:28;10.50;99.90
25058;DHT22;13057;50.978;11.034;2023-03-20T04:01:56;10.40;99.90
25058;DHT22;13057;50.978;11.034;2023-03-20T04:04:24;10.40;99.90
25058;DHT22;13057;50.978;11.034;2023-03-20T04:06:51;10.50;99.90
25058;DHT22;13057;50.978;11.034;2023-03-20T04:09:17;10.50;99.90
25058;DHT22;13057;50.978;11.034;2023-03-20T04:11:46;10.40;99.90
25058;DHT22;13057;50.978;11.034;2023-03-20T04:14:14;10.50;99.90
25058;DHT22;13057;50.978;11.034;2023-03-20T04:16:39;10.40;99.90
25058;DHT22;13057;50.978;11.034;2023-03-20T04:19:05;10.50;99.90
25058;DHT22;13057;50.978;11.034;2023-03-20T04:21:31;10.50;99.90
25058;DHT22;13057;50.978;11.034;2023-03-20T04:23:57;10.50;99.90
25058;DHT22;13057;50.978;11.034;2023-03-20T04:26:23;10.50;99.90
25058;DHT22;13057;50.978;11.034;2023-03-20T04:28:50;10.50;99.90
25058;DHT22;13057;50.978;11.034;2023-03-20T04:31:16;10.50;99.90
25058;DHT22;13057;50.978;11.034;2023-03-20T04:33:42;10.50;99.90
25058;DHT22;13057;50.978;11.034;2023-03-20T04:36:09;10.50;99.90
25058;DHT22;13057;50.978;11.034;2023-03-20T04:38:35;10.50;99.90
25058;DHT22;13057;50.978;11.034;2023-03-20T04:41:01;10.50;99.90
25058;DHT22;13057;50.978;11.034;2023-03-20T04:43:27;10.50;99.90
25058;DHT22;13057;50.978;11.034;2023-03-20T04:45:53;10.50;99.90
25058;DHT22;13057;50.978;11.034;2023-03-20T04:48:19;10.60;99.90
25058;DHT22;13057;50.978;11.034;2023-03-20T04:50:45;10.60;99.90
25058;DHT22;13057;50.978;11.034;2023-03-20T04:53:14;10.60;99.90
25058;DHT22;13057;50.978;11.034;2023-03-20T04:55:40;10.60;99.90
25058;DHT22;13057;50.978;11.034;2023-03-20T04:58:06;10.60;99.90
25058;DHT22;13057;50.978;11.034;2023-03-20T05:00:32;10.60;99.90
25058;DHT22;13057;50.978;11.034;2023-03-20T05:02:58;10.60;99.90
25058;DHT22;13057;50.978;11.034;2023-03-20T05:05:24;10.60;99.90
25058;DHT22;13057;50.978;11.034;2023-03-20T05:07:51;10.60;99.90
25058;DHT22;13057;50.978;11.034;2023-03-20T05:10:17;10.50;99.90
25058;DHT22;13057;50.978;11.034;2023-03-20T05:12:43;10.50;99.90
25058;DHT22;13057;50.978;11.034;2023-03-20T05:15:09;10.60;99.90
25058;DHT22;13057;50.978;11.034;2023-03-20T05:17:35;10.60;99.90
25058;DHT22;13057;50.978;11.034;2023-03-20T05:20:01;10.50;99.90
25058;DHT22;13057;50.978;11.034;2023-03-20T05:22:27;10.50;99.90
25058;DHT22;13057;50.978;11.034;2023-03-20T05:24:53;10.50;99.90
25058;DHT22;13057;50.978;11.034;2023-03-20T05:27:19;10.60;99.90
25058;DHT22;13057;50.978;11.034;2023-03-20T05:29:45;10.50;99.90
25058;DHT22;13057;50.978;11.034;2023-03-20T05:32:11;10.60;99.90
25058;DHT22;13057;50.978;11.034;2023-03-20T05:34:37;10.60;99.90
25058;DHT22;13057;50.978;11.034;2023-03-20T05:37:03;10.60;99.90
25058;DHT22;13057;50.978;11.034;2023-03-20T05:39:29;10.60;99.90
25058;DHT22;13057;50.978;11.034;2023-03-20T05:41:55;10.60;99.90
25058;DHT22;13057;50.978;11.034;2023-03-20T05:44:21;10.60;99.90
25058;DHT22;13057;50.978;11.034;2023-03-20T05:46:47;10.60;99.90
25058;DHT22;13057;50.978;11.034;2023-03-20T05:49:13;10.60;99.90
25058;DHT22;13057;50.978;11.034;2023-03-20T05:51:39;10.60;99.90
25058;DHT22;13057;50.978;11.034;2023-03-20T05:54:05;10.60;99.90
25058;DHT22;13057;50.978;11.034;2023-03-20T05:56:31;10.70;99.90
25058;DHT22;13057;50.978;11.034;2023-03-20T05:58:57;10.70;99.90
25058;DHT22;13057;50.978;11.034;2023-03-20T06:01:23;10.70;99.90
25058;DHT22;13057;50.978;11.034;2023-03-20T06:03:49;10.70;99.90
25058;DHT22;13057;50.978;11.034;2023-03-20T06:06:16;10.70;99.90
25058;DHT22;13057;50.978;11.034;2023-03-20T06:08:42;10.70;99.90
25058;DHT22;13057;50.978;11.034;2023-03-20T06:11:09;10.70;99.90
25058;DHT22;13057;50.978;11.034;2023-03-20T06:13:36;10.70;99.90
25058;DHT22;13057;50.978;11.034;2023-03-20T06:16:02;10.70;99.90
25058;DHT22;13057;50.978;11.034;2023-03-20T06:18:27;10.70;99.90
25058;DHT22;13057;50.978;11.034;2023-03-20T06:20:54;10.70;99.90
25058;DHT22;13057;50.978;11.034;2023-03-20T06:23:21;10.80;99.90
25058;DHT22;13057;50.978;11.034;2023-03-20T06:25:47;10.80;99.90
25058;DHT22;13057;50.978;11.034;2023-03-20T06:28:13;10.80;99.90
25058;DHT22;13057;50.978;11.034;2023-03-20T06:30:39;10.80;99.90
25058;DHT22;13057;50.978;11.034;2023-03-20T06:33:06;10.80;99.90
25058;DHT22;13057;50.978;11.034;2023-03-20T06:35:32;10.90;99.90
25058;DHT22;13057;50.978;11.034;2023-03-20T06:37:58;10.80;99.90
25058;DHT22;13057;50.978;11.034;2023-03-20T06:40:25;10.80;99.90
25058;DHT22;13057;50.978;11.034;2023-03-20T06:42:53;10.90;99.90
25058;DHT22;13057;50.978;11.034;2023-03-20T06:45:20;10.90;99.90
25058;DHT22;13057;50.978;11.034;2023-03-20T06:47:46;10.90;99.90
25058;DHT22;13057;50.978;11.034;2023-03-20T06:50:13;10.90;99.90
25058;DHT22;13057;50.978;11.034;2023-03-20T06:52:39;10.90;99.90
25058;DHT22;13057;50.978;11.034;2023-03-20T06:55:06;10.90;99.90
25058;DHT22;13057;50.978;11.034;2023-03-20T06:57:32;10.90;99.90
25058;DHT22;13057;50.978;11.034;2023-03-20T06:59:58;10.90;99.90
25058;DHT22;13057;50.978;11.034;2023-03-20T07:02:25;11.00;99.90
25058;DHT22;13057;50.978;11.034;2023-03-20T07:04:51;11.00;99.90
25058;DHT22;13057;50.978;11.034;2023-03-20T07:07:22;11.00;99.90
25058;DHT22;13057;50.978;11.034;2023-03-20T07:09:51;11.00;99.90
25058;DHT22;13057;50.978;11.034;2023-03-20T07:12:18;11.00;99.90
25058;DHT22;13057;50.978;11.034;2023-03-20T07:14:44;11.10;99.90
25058;DHT22;13057;50.978;11.034;2023-03-20T07:17:11;11.10;99.90
25058;DHT22;13057;50.978;11.034;2023-03-20T07:19:37;11.20;99.90
25058;DHT22;13057;50.978;11.034;2023-03-20T07:22:05;11.20;99.90
25058;DHT22;13057;50.978;11.034;2023-03-20T07:24:33;11.20;99.90
25058;DHT22;13057;50.978;11.034;2023-03-20T07:26:59;11.20;99.90
25058;DHT22;13057;50.978;11.034;2023-03-20T07:29:25;11.20;99.90
25058;DHT22;13057;50.978;11.034;2023-03-20T07:31:51;11.20;99.90
25058;DHT22;13057;50.978;11.034;2023-03-20T07:34:17;11.20;99.90
25058;DHT22;13057;50.978;11.034;2023-03-20T07:36:43;11.20;99.90
25058;DHT22;13057;50.978;11.034;2023-03-20T07:39:09;11.20;99.90
25058;DHT22;13057;50.978;11.034;2023-03-20T07:41:35;11.20;99.90
25058;DHT22;13057;50.978;11.034;2023-03-20T07:44:02;11.30;99.90
25058;DHT22;13057;50.978;11.034;2023-03-20T07:46:28;11.30;99.90
25058;DHT22;13057;50.978;11.034;2023-03-20T07:48:53;11.30;99.90
25058;DHT22;13057;50.978;11.034;2023-03-20T07:51:21;11.40;99.90
25058;DHT22;13057;50.978;11.034;2023-03-20T07:53:46;11.40;99.90
25058;DHT22;13057;50.978;11.034;2023-03-20T07:56:12;11.40;99.90
25058;DHT22;13057;50.978;11.034;2023-03-20T07:58:39;11.50;99.90
25058;DHT22;13057;50.978;11.034;2023-03-20T08:01:06;11.50;99.90
25058;DHT22;13057;50.978;11.034;2023-03-20T08:03:33;11.50;99.90
25058;DHT22;13057;50.978;11.034;2023-03-20T08:06:03;11.70;99.90
25058;DHT22;13057;50.978;11.034;2023-03-20T08:08:32;11.80;99.90
25058;DHT22;13057;50.978;11.034;2023-03-20T08:10:59;12.00;99.90
25058;DHT22;13057;50.978;11.034;2023-03-20T08:13:26;12.00;99.90
25058;DHT22;13057;50.978;11.034;2023-03-20T08:15:54;12.10;99.90
25058;DHT22;13057;50.978;11.034;2023-03-20T08:18:21;12.20;99.90
25058;DHT22;13057;50.978;11.034;2023-03-20T08:20:48;12.30;99.90
25058;DHT22;13057;50.978;11.034;2023-03-20T08:23:16;12.30;99.90
25058;DHT22;13057;50.978;11.034;2023-03-20T08:25:47;12.40;99.90
25058;DHT22;13057;50.978;11.034;2023-03-20T08:28:14;12.40;99.90
25058;DHT22;13057;50.978;11.034;2023-03-20T08:30:42;12.40;99.90
25058;DHT22;13057;50.978;11.034;2023-03-20T08:33:09;12.40;99.90
25058;DHT22;13057;50.978;11.034;2023-03-20T08:35:36;12.50;99.90
25058;DHT22;13057;50.978;11.034;2023-03-20T08:38:04;12.50;99.90
25058;DHT22;13057;50.978;11.034;2023-03-20T08:40:34;12.50;99.90
25058;DHT22;13057;50.978;11.034;2023-03-20T08:43:02;12.50;99.90
25058;DHT22;13057;50.978;11.034;2023-03-20T08:45:31;12.50;99.90
25058;DHT22;13057;50.978;11.034;2023-03-20T08:47:58;12.50;99.90
25058;DHT22;13057;50.978;11.034;2023-03-20T08:50:24;12.50;99.90
25058;DHT22;13057;50.978;11.034;2023-03-20T08:52:51;12.50;99.90
25058;DHT22;13057;50.978;11.034;2023-03-20T08:55:18;12.40;99.90
25058;DHT22;13057;50.978;11.034;2023-03-20T08:57:45;12.40;99.90
25058;DHT22;13057;50.978;11.034;2023-03-20T09:00:14;12.40;99.90
25058;DHT22;13057;50.978;11.034;2023-03-20T09:02:42;12.40;99.90
25058;DHT22;13057;50.978;11.034;2023-03-20T09:05:09;12.40;99.90
25058;DHT22;13057;50.978;11.034;2023-03-20T09:07:37;12.40;99.90
25058;DHT22;13057;50.978;11.034;2023-03-20T09:10:04;12.50;99.90
25058;DHT22;13057;50.978;11.034;2023-03-20T09:12:30;12.40;99.90
25058;DHT22;13057;50.978;11.034;2023-03-20T09:14:59;12.40;99.90
25058;DHT22;13057;50.978;11.034;2023-03-20T09:17:26;12.40;99.90
25058;DHT22;13057;50.978;11.034;2023-03-20T09:19:53;12.40;99.90
25058;DHT22;13057;50.978;11.034;2023-03-20T09:22:20;12.40;99.90
25058;DHT22;13057;50.978;11.034;2023-03-20T09:24:47;12.40;99.90
25058;DHT22;13057;50.978;11.034;2023-03-20T09:27:14;12.40;99.90
25058;DHT22;13057;50.978;11.034;2023-03-20T09:29:41;12.50;99.90
25058;DHT22;13057;50.978;11.034;2023-03-20T09:32:11;12.50;99.90
25058;DHT22;13057;50.978;11.034;2023-03-20T09:34:38;12.60;99.90
25058;DHT22;13057;50.978;11.034;2023-03-20T09:37:05;12.60;99.90
25058;DHT22;13057;50.978;11.034;2023-03-20T09:39:32;12.60;99.90
25058;DHT22;13057;50.978;11.034;2023-03-20T09:42:07;12.60;99.90
25058;DHT22;13057;50.978;11.034;2023-03-20T09:44:53;12.70;99.90
25058;DHT22;13057;50.978;11.034;2023-03-20T09:47:35;12.70;99.90
25058;DHT22;13057;50.978;11.034;2023-03-20T09:53:01;12.60;99.90
25058;DHT22;13057;50.978;11.034;2023-03-20T09:55:35;12.60;99.90
25058;DHT22;13057;50.978;11.034;2023-03-20T09:58:09;12.50;99.90
25058;DHT22;13057;50.978;11.034;2023-03-20T10:00:36;12.60;99.90
25058;DHT22;13057;50.978;11.034;2023-03-20T10:03:08;12.60;99.90
25058;DHT22;13057;50.978;11.034;2023-03-20T10:05:44;12.60;99.90
25058;DHT22;13057;50.978;11.034;2023-03-20T10:08:13;12.60;99.90
25058;DHT22;13057;50.978;11.034;2023-03-20T10:13:54;12.60;99.90
25058;DHT22;13057;50.978;11.034;2023-03-20T10:16:33;12.70;99.90
25058;DHT22;13057;50.978;11.034;2023-03-20T10:19:13;12.80;99.90
25058;DHT22;13057;50.978;11.034;2023-03-20T10:21:44;12.80;99.90
25058;DHT22;13057;50.978;11.034;2023-03-20T10:24:21;12.80;99.90
25058;DHT22;13057;50.978;11.034;2023-03-20T10:26:52;12.70;99.90
25058;DHT22;13057;50.978;11.034;2023-03-20T10:29:37;12.80;99.90
25058;DHT22;13057;50.978;11.034;2023-03-20T10:32:19;12.80;99.90
25058;DHT22;13057;50.978;11.034;2023-03-20T10:34:56;12.70;99.90
25058;DHT22;13057;50.978;11.034;2023-03-20T10:37:43;12.70;99.90
25058;DHT22;13057;50.978;11.034;2023-03-20T10:40:30;12.80;99.90
25058;DHT22;13057;50.978;11.034;2023-03-20T10:43:02;12.70;99.90
25058;DHT22;13057;50.978;11.034;2023-03-20T10:45:40;12.70;99.90
25058;DHT22;13057;50.978;11.034;2023-03-20T10:48:24;12.70;99.90
25058;DHT22;13057;50.978;11.034;2023-03-20T10:50:57;12.70;99.90
25058;DHT22;13057;50.978;11.034;2023-03-20T10:53:33;12.70;99.90
25058;DHT22;13057;50.978;11.034;2023-03-20T10:56:05;12.80;99.90
25058;DHT22;13057;50.978;11.034;2023-03-20T10:58:36;12.80;99.90
25058;DHT22;13057;50.978;11.034;2023-03-20T11:01:04;12.90;99.90
25058;DHT22;13057;50.978;11.034;2023-03-20T11:03:31;13.00;99.90
25058;DHT22;13057;50.978;11.034;2023-03-20T11:06:02;13.00;99.90
25058;DHT22;13057;50.978;11.034;2023-03-20T11:08:34;13.00;99.90
25058;DHT22;13057;50.978;11.034;2023-03-20T11:11:02;13.10;99.90
25058;DHT22;13057;50.978;11.034;2023-03-20T11:13:35;13.10;99.90
25058;DHT22;13057;50.978;11.034;2023-03-20T11:16:15;13.20;99.90
25058;DHT22;13057;50.978;11.034;2023-03-20T11:18:42;13.20;99.90
25058;DHT22;13057;50.978;11.034;2023-03-20T11:21:17;13.30;99.90
25058;DHT22;13057;50.978;11.034;2023-03-20T11:23:43;13.30;99.90
25058;DHT22;13057;50.978;11.034;2023-03-20T11:26:13;13.40;99.90
25058;DHT22;13057;50.978;11.034;2023-03-20T11:28:50;13.50;99.90
25058;DHT22;13057;50.978;11.034;2023-03-20T11:31:26;13.60;99.90
25058;DHT22;13057;50.978;11.034;2023-03-20T11:34:10;13.70;99.90
25058;DHT22;13057;50.978;11.034;2023-03-20T11:36:36;13.80;99.90
25058;DHT22;13057;50.978;11.034;2023-03-20T11:39:11;13.80;99.90
25058;DHT22;13057;50.978;11.034;2023-03-20T11:41:47;13.80;99.90
25058;DHT22;13057;50.978;11.034;2023-03-20T11:44:29;13.80;99.90
25058;DHT22;13057;50.978;11.034;2023-03-20T11:47:02;13.80;99.90
25058;DHT22;13057;50.978;11.034;2023-03-20T11:49:28;13.80;99.90
25058;DHT22;13057;50.978;11.034;2023-03-20T11:51:59;13.90;99.90
25058;DHT22;13057;50.978;11.034;2023-03-20T11:54:27;13.90;99.90
25058;DHT22;13057;50.978;11.034;2023-03-20T11:56:56;13.90;99.90
25058;DHT22;13057;50.978;11.034;2023-03-20T11:59:31;14.00;99.90
25058;DHT22;13057;50.978;11.034;2023-03-20T12:02:00;14.10;99.90
25058;DHT22;13057;50.978;11.034;2023-03-20T12:04:33;14.10;99.90
25058;DHT22;13057;50.978;11.034;2023-03-20T12:07:13;14.10;99.90
25058;DHT22;13057;50.978;11.034;2023-03-20T12:09:53;14.10;99.90
25058;DHT22;13057;50.978;11.034;2023-03-20T12:12:44;14.10;99.90
25058;DHT22;13057;50.978;11.034;2023-03-20T12:17:52;14.10;99.90
25058;DHT22;13057;50.978;11.034;2023-03-20T12:20:26;14.10;99.90
25058;DHT22;13057;50.978;11.034;2023-03-20T12:23:13;14.20;99.90
25058;DHT22;13057;50.978;11.034;2023-03-20T12:25:58;14.20;99.90
25058;DHT22;13057;50.978;11.034;2023-03-20T12:31:22;14.30;99.90
25058;DHT22;13057;50.978;11.034;2023-03-20T12:33:56;14.20;99.90
25058;DHT22;13057;50.978;11.034;2023-03-20T12:36:32;14.30;99.90
25058;DHT22;13057;50.978;11.034;2023-03-20T12:39:00;14.40;99.90
25058;DHT22;13057;50.978;11.034;2023-03-20T12:41:48;14.30;99.90
25058;DHT22;13057;50.978;11.034;2023-03-20T12:49:53;14.50;99.90
25058;DHT22;13057;50.978;11.034;2023-03-20T12:52:43;14.40;99.90
25058;DHT22;13057;50.978;11.034;2023-03-20T12:55:28;14.50;99.90
25058;DHT22;13057;50.978;11.034;2023-03-20T12:58:06;14.50;99.90
25058;DHT22;13057;50.978;11.034;2023-03-20T13:00:41;14.50;99.90
25058;DHT22;13057;50.978;11.034;2023-03-20T13:03:27;14.50;99.90
25058;DHT22;13057;50.978;11.034;2023-03-20T13:06:10;14.60;99.90
25058;DHT22;13057;50.978;11.034;2023-03-20T13:08:51;14.60;99.90
25058;DHT22;13057;50.978;11.034;2023-03-20T13:11:35;14.50;99.90
25058;DHT22;13057;50.978;11.034;2023-03-20T13:14:16;14.50;99.90
25058;DHT22;13057;50.978;11.034;2023-03-20T13:16:56;14.50;99.90
25058;DHT22;13057;50.978;11.034;2023-03-20T13:19:36;14.50;99.90
25058;DHT22;13057;50.978;11.034;2023-03-20T13:22:18;14.50;99.90
25058;DHT22;13057;50.978;11.034;2023-03-20T13:24:54;14.50;99.90
25058;DHT22;13057;50.978;11.034;2023-03-20T13:27:45;14.50;99.90
25058;DHT22;13057;50.978;11.034;2023-03-20T13:30:31;14.50;99.90
25058;DHT22;13057;50.978;11.034;2023-03-20T13:33:31;14.50;99.90
25058;DHT22;13057;50.978;11.034;2023-03-20T13:36:20;14.40;99.90
25058;DHT22;13057;50.978;11.034;2023-03-20T13:38:53;14.40;99.90
25058;DHT22;13057;50.978;11.034;2023-03-20T13:41:23;14.50;99.90
25058;DHT22;13057;50.978;11.034;2023-03-20T13:43:55;14.50;99.90
25058;DHT22;13057;50.978;11.034;2023-03-20T13:46:27;14.50;99.90
25058;DHT22;13057;50.978;11.034;2023-03-20T13:48:57;14.60;99.90
25058;DHT22;13057;50.978;11.034;2023-03-20T13:51:29;14.60;99.90
25058;DHT22;13057;50.978;11.034;2023-03-20T13:54:30;14.50;99.90
25058;DHT22;13057;50.978;11.034;2023-03-20T13:57:15;14.50;99.90
25058;DHT22;13057;50.978;11.034;2023-03-20T14:00:30;14.50;99.90
25058;DHT22;13057;50.978;11.034;2023-03-20T14:05:44;14.50;99.90
25058;DHT22;13057;50.978;11.034;2023-03-20T14:08:33;14.50;99.90
25058;DHT22;13057;50.978;11.034;2023-03-20T14:11:13;14.40;99.90
25058;DHT22;13057;50.978;11.034;2023-03-20T14:13:44;14.40;99.90
25058;DHT22;13057;50.978;11.034;2023-03-20T14:16:14;14.50;99.90
25058;DHT22;13057;50.978;11.034;2023-03-20T14:18:43;14.50;99.90
25058;DHT22;13057;50.978;11.034;2023-03-20T14:21:12;14.60;99.90
25058;DHT22;13057;50.978;11.034;2023-03-20T14:23:42;14.70;99.90
25058;DHT22;13057;50.978;11.034;2023-03-20T14:26:22;14.80;99.90
25058;DHT22;13057;50.978;11.034;2023-03-20T14:28:54;14.60;99.90
25058;DHT22;13057;50.978;11.034;2023-03-20T14:31:23;14.60;99.90
25058;DHT22;13057;50.978;11.034;2023-03-20T14:34:06;14.60;99.90
25058;DHT22;13057;50.978;11.034;2023-03-20T14:36:56;14.60;99.90
25058;DHT22;13057;50.978;11.034;2023-03-20T14:39:42;14.50;99.90
25058;DHT22;13057;50.978;11.034;2023-03-20T14:42:21;14.50;99.90
25058;DHT22;13057;50.978;11.034;2023-03-20T14:53:40;14.60;99.90
25058;DHT22;13057;50.978;11.034;2023-03-20T14:56:10;14.50;99.90
25058;DHT22;13057;50.978;11.034;2023-03-20T14:58:47;14.50;99.90
25058;DHT22;13057;50.978;11.034;2023-03-20T15:01:23;14.50;99.90
25058;DHT22;13057;50.978;11.034;2023-03-20T15:03:55;14.40;99.90
25058;DHT22;13057;50.978;11.034;2023-03-20T15:06:24;14.40;99.90
25058;DHT22;13057;50.978;11.034;2023-03-20T15:09:00;14.40;99.90
25058;DHT22;13057;50.978;11.034;2023-03-20T15:11:29;14.40;99.90
25058;DHT22;13057;50.978;11.034;2023-03-20T15:13:57;14.40;99.90
25058;DHT22;13057;50.978;11.034;2023-03-20T15:16:28;14.40;99.90
25058;DHT22;13057;50.978;11.034;2023-03-20T15:18:54;14.40;99.90
25058;DHT22;13057;50.978;11.034;2023-03-20T15:21:33;14.30;99.90
25058;DHT22;13057;50.978;11.034;2023-03-20T15:23:59;14.40;99.90
25058;DHT22;13057;50.978;11.034;2023-03-20T15:26:27;14.30;99.90
25058;DHT22;13057;50.978;11.034;2023-03-20T15:28:59;14.40;99.90
25058;DHT22;13057;50.978;11.034;2023-03-20T15:31:32;14.40;99.90
25058;DHT22;13057;50.978;11.034;2023-03-20T15:34:01;14.30;99.90
25058;DHT22;13057;50.978;11.034;2023-03-20T15:36:30;14.30;99.90
25058;DHT22;13057;50.978;11.034;2023-03-20T15:39:11;14.30;99.90
25058;DHT22;13057;50.978;11.034;2023-03-20T15:41:37;14.30;99.90
25058;DHT22;13057;50.978;11.034;2023-03-20T15:44:20;14.30;99.90
25058;DHT22;13057;50.978;11.034;2023-03-20T15:46:52;14.30;99.90
25058;DHT22;13057;50.978;11.034;2023-03-20T15:49:19;14.30;99.90
25058;DHT22;13057;50.978;11.034;2023-03-20T15:51:46;14.30;99.90
25058;DHT22;13057;50.978;11.034;2023-03-20T15:54:15;14.30;99.90
25058;DHT22;13057;50.978;11.034;2023-03-20T15:56:44;14.30;99.90
25058;DHT22;13057;50.978;11.034;2023-03-20T15:59:14;14.30;99.90
25058;DHT22;13057;50.978;11.034;2023-03-20T16:01:44;14.20;99.90
25058;DHT22;13057;50.978;11.034;2023-03-20T16:04:14;14.20;99.90
25058;DHT22;13057;50.978;11.034;2023-03-20T16:06:53;14.20;99.90
25058;DHT22;13057;50.978;11.034;2023-03-20T16:09:19;14.20;99.90
25058;DHT22;13057;50.978;11.034;2023-03-20T16:11:48;14.10;99.90
25058;DHT22;13057;50.978;11.034;2023-03-20T16:14:22;14.10;99.90
25058;DHT22;13057;50.978;11.034;2023-03-20T16:16:50;14.10;99.90